Time;durP1;ratioP1;P1;durP2;ratioP2;P2;SDS_P1;SDS_P2;PMS_P1;PMS_P2;Temp;Humidity;BMP_temperature;BMP_pressure;BME280_temperature;BME280_humidity;BME280_pressure;Samples;Min_cycle;Max_cycle;Signal;HPM_P1;HPM_P2
2023/10/24 00:01:33;;;;;;;1.90;1.60;;;;;;;;;;5022363;28;20177;-44
2023/10/24 00:03:59;;;;;;;1.90;1.50;;;;;;;;;;5030970;28;20230;-45
2023/10/24 00:06:25;;;;;;;1.60;1.50;;;;;;;;;;5035710;28;20191;-46
2023/10/24 00:08:51;;;;;;;1.60;1.50;;;;;;;;;;5026595;28;20192;-46
2023/10/24 00:11:17;;;;;;;2.00;1.65;;;;;;;;;;5028862;28;20203;-46
2023/10/24 00:13:43;;;;;;;1.27;1.17;;;;;;;;;;5033981;28;20197;-45
2023/10/24 00:16:08;;;;;;;1.77;1.63;;;;;;;;;;5032438;28;20208;-45
2023/10/24 00:18:34;;;;;;;1.65;1.55;;;;;;;;;;5026534;28;20180;-45
2023/10/24 00:21:01;;;;;;;1.70;1.60;;;;;;;;;;5035181;28;20221;-45
2023/10/24 00:23:29;;;;;;;1.70;1.60;;;;;;;;;;5036966;28;20179;-45
2023/10/24 00:25:55;;;;;;;1.45;1.23;;;;;;;;;;5029857;28;20314;-46
2023/10/24 00:28:21;;;;;;;2.45;1.80;;;;;;;;;;5034806;28;20220;-46
2023/10/24 00:30:47;;;;;;;1.40;1.30;;;;;;;;;;5025593;28;20200;-45
2023/10/24 00:33:13;;;;;;;1.60;1.50;;;;;;;;;;5031337;28;20209;-46
2023/10/24 00:35:40;;;;;;;1.55;1.45;;;;;;;;;;5025961;28;20199;-45
2023/10/24 00:38:06;;;;;;;1.58;1.48;;;;;;;;;;5031199;28;20180;-45
2023/10/24 00:40:33;;;;;;;1.40;1.30;;;;;;;;;;5022270;28;20180;-46
2023/10/24 00:43:03;;;;;;;1.70;1.60;;;;;;;;;;5038057;28;20187;-46
2023/10/24 00:45:29;;;;;;;1.98;1.77;;;;;;;;;;5035404;28;20172;-46
2023/10/24 00:47:55;;;;;;;1.42;1.33;;;;;;;;;;5025559;28;20196;-45
2023/10/24 00:50:21;;;;;;;1.67;1.55;;;;;;;;;;5017207;28;20192;-44
2023/10/24 00:52:47;;;;;;;1.50;1.40;;;;;;;;;;5022345;28;20222;-44
2023/10/24 00:55:14;;;;;;;1.92;1.65;;;;;;;;;;5026133;28;20175;-43
2023/10/24 00:57:40;;;;;;;2.15;1.40;;;;;;;;;;5022265;28;20548;-43
2023/10/24 01:00:07;;;;;;;1.70;1.60;;;;;;;;;;5020103;28;20331;-44
2023/10/24 01:02:33;;;;;;;1.48;1.38;;;;;;;;;;5026327;28;20578;-43
2023/10/24 01:05:00;;;;;;;1.40;1.30;;;;;;;;;;5030200;28;20184;-43
2023/10/24 01:07:26;;;;;;;1.55;1.45;;;;;;;;;;5029434;28;20187;-43
2023/10/24 01:09:52;;;;;;;2.00;1.38;;;;;;;;;;5026820;28;20188;-43
2023/10/24 01:12:18;;;;;;;1.42;1.20;;;;;;;;;;5028032;28;20194;-43
2023/10/24 01:14:44;;;;;;;1.40;1.30;;;;;;;;;;5029359;28;20628;-44
2023/10/24 01:17:11;;;;;;;1.48;1.38;;;;;;;;;;5031874;28;20185;-45
2023/10/24 01:19:37;;;;;;;1.50;1.38;;;;;;;;;;5035859;28;20200;-45
2023/10/24 01:22:03;;;;;;;1.65;1.55;;;;;;;;;;5029066;28;20229;-46
2023/10/24 01:24:29;;;;;;;1.17;1.13;;;;;;;;;;5030901;28;20713;-46
2023/10/24 01:26:57;;;;;;;1.77;1.50;;;;;;;;;;5019519;28;20189;-45
2023/10/24 01:29:23;;;;;;;1.45;1.35;;;;;;;;;;5023509;28;20594;-45
2023/10/24 01:31:49;;;;;;;1.10;1.05;;;;;;;;;;5023689;28;20279;-45
2023/10/24 01:34:15;;;;;;;1.80;1.20;;;;;;;;;;5016859;28;20243;-45
2023/10/24 01:36:41;;;;;;;1.40;1.30;;;;;;;;;;5023149;28;20464;-46
2023/10/24 01:39:07;;;;;;;1.85;1.30;;;;;;;;;;5016721;28;20231;-46
2023/10/24 01:41:33;;;;;;;1.70;1.20;;;;;;;;;;5019330;28;20484;-45
2023/10/24 01:43:59;;;;;;;1.45;1.35;;;;;;;;;;5021306;28;20212;-46
2023/10/24 01:46:25;;;;;;;1.48;1.33;;;;;;;;;;5017434;28;20204;-46
2023/10/24 01:48:51;;;;;;;1.35;1.25;;;;;;;;;;5018729;28;20237;-46
2023/10/24 01:51:17;;;;;;;1.17;1.05;;;;;;;;;;5022644;28;20271;-45
2023/10/24 01:53:43;;;;;;;1.42;1.17;;;;;;;;;;5026276;28;20215;-46
2023/10/24 01:56:10;;;;;;;1.27;1.17;;;;;;;;;;5032975;28;20182;-46
2023/10/24 01:58:36;;;;;;;1.85;1.48;;;;;;;;;;5025203;28;20333;-45
2023/10/24 02:01:02;;;;;;;1.30;1.20;;;;;;;;;;5027673;28;20570;-45
2023/10/24 02:03:28;;;;;;;1.75;1.52;;;;;;;;;;5030343;28;20491;-45
2023/10/24 02:05:54;;;;;;;1.38;1.17;;;;;;;;;;5029725;28;20184;-45
2023/10/24 02:08:20;;;;;;;1.27;1.17;;;;;;;;;;5026771;28;20188;-45
2023/10/24 02:10:46;;;;;;;1.38;1.27;;;;;;;;;;5024993;28;20464;-45
2023/10/24 02:13:12;;;;;;;1.48;1.38;;;;;;;;;;5026926;28;20672;-45
2023/10/24 02:15:38;;;;;;;1.02;1.00;;;;;;;;;;5024953;28;20172;-45
2023/10/24 02:18:04;;;;;;;0.90;0.90;;;;;;;;;;5024187;28;20191;-46
2023/10/24 02:20:30;;;;;;;1.40;1.30;;;;;;;;;;5026064;28;20183;-46
2023/10/24 02:22:56;;;;;;;1.20;1.10;;;;;;;;;;5022709;28;20235;-46
2023/10/24 02:25:22;;;;;;;1.45;1.35;;;;;;;;;;5032213;28;20190;-46
2023/10/24 02:27:48;;;;;;;1.15;1.05;;;;;;;;;;5031291;28;20188;-46
2023/10/24 02:30:14;;;;;;;1.02;1.00;;;;;;;;;;5026078;28;20220;-45
2023/10/24 02:32:39;;;;;;;1.23;1.13;;;;;;;;;;5033019;28;20202;-45
2023/10/24 02:35:05;;;;;;;1.33;1.23;;;;;;;;;;5034118;28;20210;-45
2023/10/24 02:37:31;;;;;;;3.08;1.13;;;;;;;;;;5032927;28;20242;-46
2023/10/24 02:39:57;;;;;;;1.17;1.08;;;;;;;;;;5027087;28;20527;-45
2023/10/24 02:42:23;;;;;;;1.35;1.10;;;;;;;;;;5028127;28;20563;-46
2023/10/24 02:44:49;;;;;;;1.30;1.13;;;;;;;;;;5031681;28;20188;-46
2023/10/24 02:47:15;;;;;;;1.60;1.40;;;;;;;;;;5024541;28;20192;-46
2023/10/24 02:49:41;;;;;;;1.17;1.10;;;;;;;;;;5025633;28;20191;-46
2023/10/24 02:52:07;;;;;;;1.00;1.00;;;;;;;;;;5028882;28;20187;-46
2023/10/24 02:54:34;;;;;;;1.90;1.20;;;;;;;;;;5028425;28;20640;-45
2023/10/24 02:56:59;;;;;;;1.40;1.15;;;;;;;;;;5025823;28;20181;-46
2023/10/24 02:59:25;;;;;;;1.20;1.10;;;;;;;;;;5018626;28;20556;-46
2023/10/24 03:01:51;;;;;;;1.52;1.20;;;;;;;;;;5022901;28;20535;-46
2023/10/24 03:04:17;;;;;;;1.23;1.13;;;;;;;;;;5014233;28;20208;-45
2023/10/24 03:06:43;;;;;;;1.13;1.00;;;;;;;;;;5027044;28;20175;-49
2023/10/24 03:09:09;;;;;;;1.23;1.05;;;;;;;;;;5025812;28;20183;-45
2023/10/24 03:11:35;;;;;;;1.40;1.30;;;;;;;;;;5021402;28;20256;-45
2023/10/24 03:14:01;;;;;;;1.40;1.05;;;;;;;;;;5031910;28;20211;-46
2023/10/24 03:16:27;;;;;;;1.55;1.30;;;;;;;;;;5023287;28;20207;-46
2023/10/24 03:18:53;;;;;;;0.90;0.90;;;;;;;;;;5017024;28;20211;-46
2023/10/24 03:21:19;;;;;;;1.08;1.00;;;;;;;;;;5014637;28;20223;-51
2023/10/24 03:23:45;;;;;;;1.77;1.10;;;;;;;;;;5033835;28;20179;-48
2023/10/24 03:26:11;;;;;;;2.30;1.40;;;;;;;;;;5026297;28;20183;-46
2023/10/24 03:28:37;;;;;;;1.40;1.20;;;;;;;;;;5031483;28;20188;-48
2023/10/24 03:31:03;;;;;;;2.28;1.40;;;;;;;;;;5030429;28;20212;-44
2023/10/24 03:33:33;;;;;;;1.98;1.10;;;;;;;;;;5024452;28;20204;-46
2023/10/24 03:35:59;;;;;;;1.30;1.20;;;;;;;;;;5033106;28;20190;-46
2023/10/24 03:38:26;;;;;;;2.40;1.45;;;;;;;;;;5031400;28;20194;-46
2023/10/24 03:40:52;;;;;;;1.02;0.95;;;;;;;;;;5029923;28;20487;-46
2023/10/24 03:43:18;;;;;;;1.40;1.27;;;;;;;;;;5028876;28;20254;-47
2023/10/24 03:45:44;;;;;;;2.53;1.60;;;;;;;;;;5030213;28;20459;-47
2023/10/24 03:48:12;;;;;;;35.30;7.63;;;;;;;;;;5031404;28;20217;-43
2023/10/24 03:50:38;;;;;;;40.63;10.77;;;;;;;;;;5031808;28;20188;-43
2023/10/24 03:53:04;;;;;;;30.65;8.55;;;;;;;;;;5029051;28;20279;-43
2023/10/24 03:55:30;;;;;;;19.15;6.22;;;;;;;;;;5035757;28;20203;-50
2023/10/24 03:57:56;;;;;;;28.73;6.78;;;;;;;;;;5036405;28;20175;-50
2023/10/24 04:00:22;;;;;;;22.40;6.97;;;;;;;;;;5036100;28;20183;-50
2023/10/24 04:02:51;;;;;;;22.17;7.05;;;;;;;;;;5036201;28;20168;-50
2023/10/24 04:05:17;;;;;;;26.73;6.38;;;;;;;;;;5036049;28;20169;-50
2023/10/24 04:07:43;;;;;;;18.27;5.25;;;;;;;;;;5036277;28;20179;-50
2023/10/24 04:10:09;;;;;;;20.90;5.95;;;;;;;;;;5036103;28;20164;-50
2023/10/24 04:12:35;;;;;;;23.30;5.18;;;;;;;;;;5035953;28;20214;-50
2023/10/24 04:15:03;;;;;;;19.27;5.50;;;;;;;;;;5031983;28;20199;-50
2023/10/24 04:17:29;;;;;;;16.02;4.72;;;;;;;;;;5014490;28;20198;-50
2023/10/24 04:19:55;;;;;;;13.88;4.93;;;;;;;;;;5013846;28;20181;-50
2023/10/24 04:22:21;;;;;;;11.63;3.97;;;;;;;;;;5013630;28;20188;-50
2023/10/24 04:24:47;;;;;;;20.38;4.63;;;;;;;;;;5015981;28;20192;-50
2023/10/24 04:27:13;;;;;;;11.88;3.15;;;;;;;;;;5018496;28;20572;-50
2023/10/24 04:29:39;;;;;;;9.63;3.70;;;;;;;;;;5018239;28;20459;-50
2023/10/24 04:32:05;;;;;;;11.43;3.47;;;;;;;;;;5021433;28;20578;-50
2023/10/24 04:34:31;;;;;;;9.35;2.90;;;;;;;;;;5016841;28;20208;-50
2023/10/24 04:36:57;;;;;;;11.40;3.17;;;;;;;;;;5030738;28;20255;-50
2023/10/24 04:39:23;;;;;;;7.72;2.72;;;;;;;;;;5026021;28;20488;-50
2023/10/24 04:41:50;;;;;;;8.30;3.05;;;;;;;;;;5021376;28;20184;-50
2023/10/24 04:44:16;;;;;;;4.25;2.35;;;;;;;;;;5027041;28;20249;-50
2023/10/24 04:46:42;;;;;;;9.90;2.80;;;;;;;;;;5024827;28;20200;-50
2023/10/24 04:49:07;;;;;;;9.27;2.90;;;;;;;;;;5025369;28;20290;-50
2023/10/24 04:51:33;;;;;;;6.00;1.90;;;;;;;;;;5017991;28;20623;-50
2023/10/24 04:53:59;;;;;;;6.55;2.53;;;;;;;;;;5022724;28;20286;-50
2023/10/24 04:56:25;;;;;;;5.85;2.10;;;;;;;;;;5023485;28;20311;-50
2023/10/24 04:58:54;;;;;;;6.30;2.65;;;;;;;;;;5014743;28;20267;-50
2023/10/24 05:01:20;;;;;;;8.15;2.78;;;;;;;;;;5023857;28;20294;-50
2023/10/24 05:03:46;;;;;;;4.80;2.13;;;;;;;;;;5019458;28;20287;-51
2023/10/24 05:06:12;;;;;;;3.67;2.03;;;;;;;;;;5027487;28;20176;-50
2023/10/24 05:08:38;;;;;;;7.07;2.72;;;;;;;;;;5025334;28;20327;-50
2023/10/24 05:11:04;;;;;;;4.40;1.80;;;;;;;;;;5034001;28;20188;-50
2023/10/24 05:13:30;;;;;;;3.20;1.88;;;;;;;;;;5018912;28;20258;-50
2023/10/24 05:15:56;;;;;;;5.70;2.13;;;;;;;;;;5035425;28;20172;-51
2023/10/24 05:18:22;;;;;;;4.22;1.88;;;;;;;;;;5029799;28;20183;-51
2023/10/24 05:20:48;;;;;;;3.28;2.00;;;;;;;;;;5031791;28;20172;-50
2023/10/24 05:23:14;;;;;;;3.22;1.73;;;;;;;;;;5025712;28;20188;-50
2023/10/24 05:25:42;;;;;;;3.30;1.65;;;;;;;;;;5033083;28;20191;-50
2023/10/24 05:28:08;;;;;;;4.80;1.50;;;;;;;;;;5030377;28;20180;-50
2023/10/24 05:30:34;;;;;;;3.70;1.42;;;;;;;;;;5036675;28;20470;-50
2023/10/24 05:33:00;;;;;;;5.22;1.70;;;;;;;;;;5034063;28;20208;-50
2023/10/24 05:35:26;;;;;;;4.18;1.63;;;;;;;;;;5034943;28;20184;-50
2023/10/24 05:37:51;;;;;;;2.75;1.60;;;;;;;;;;5034279;28;20180;-50
2023/10/24 05:40:17;;;;;;;3.65;1.70;;;;;;;;;;5034322;28;20465;-50
2023/10/24 05:42:44;;;;;;;3.00;1.60;;;;;;;;;;5034478;28;20190;-50
2023/10/24 05:45:10;;;;;;;3.45;1.90;;;;;;;;;;5031365;28;20208;-50
2023/10/24 05:47:36;;;;;;;2.13;1.63;;;;;;;;;;5027982;28;20180;-50
2023/10/24 05:50:02;;;;;;;3.28;1.38;;;;;;;;;;5034390;28;20180;-50
2023/10/24 05:52:28;;;;;;;3.05;1.60;;;;;;;;;;5024556;28;20268;-50
2023/10/24 05:54:54;;;;;;;3.40;1.50;;;;;;;;;;5025648;28;20211;-50
2023/10/24 05:57:20;;;;;;;5.15;1.40;;;;;;;;;;5023506;28;20188;-50
2023/10/24 05:59:46;;;;;;;1.52;1.13;;;;;;;;;;5022759;28;20193;-50
2023/10/24 06:02:12;;;;;;;2.95;1.30;;;;;;;;;;5026048;28;20450;-50
2023/10/24 06:04:38;;;;;;;1.38;1.10;;;;;;;;;;5028325;28;20202;-50
2023/10/24 06:07:07;;;;;;;2.58;1.30;;;;;;;;;;5035648;28;20619;-50
2023/10/24 06:09:33;;;;;;;3.42;1.45;;;;;;;;;;5028418;28;20267;-50
2023/10/24 06:11:59;;;;;;;1.55;1.30;;;;;;;;;;5027615;28;20180;-50
2023/10/24 06:14:25;;;;;;;1.48;1.23;;;;;;;;;;5033809;28;20226;-50
2023/10/24 06:16:51;;;;;;;2.85;1.90;;;;;;;;;;5031053;28;20451;-49
2023/10/24 06:19:17;;;;;;;1.80;1.00;;;;;;;;;;5032858;28;20577;-50
2023/10/24 06:21:43;;;;;;;1.88;1.30;;;;;;;;;;5034489;28;20179;-50
2023/10/24 06:24:09;;;;;;;1.65;1.17;;;;;;;;;;5029730;28;20849;-50
2023/10/24 06:26:35;;;;;;;2.47;1.40;;;;;;;;;;5027549;28;20559;-50
2023/10/24 06:29:01;;;;;;;1.65;1.20;;;;;;;;;;5030097;28;20554;-51
2023/10/24 06:31:28;;;;;;;1.17;1.10;;;;;;;;;;5023894;28;20756;-50
2023/10/24 06:33:54;;;;;;;2.13;1.20;;;;;;;;;;5033615;28;20919;-50
2023/10/24 06:36:21;;;;;;;4.07;1.42;;;;;;;;;;5035089;28;20187;-51
2023/10/24 06:38:47;;;;;;;2.03;1.52;;;;;;;;;;5032630;28;20199;-50
2023/10/24 06:41:13;;;;;;;1.65;1.17;;;;;;;;;;5026015;28;20187;-50
2023/10/24 06:43:39;;;;;;;1.83;1.17;;;;;;;;;;5030541;28;20614;-50
2023/10/24 06:46:05;;;;;;;1.35;1.02;;;;;;;;;;5029834;28;20180;-50
2023/10/24 06:48:32;;;;;;;2.03;1.15;;;;;;;;;;5030698;28;20229;-50
2023/10/24 06:50:58;;;;;;;1.08;0.98;;;;;;;;;;5025981;28;20565;-50
2023/10/24 06:53:24;;;;;;;2.75;1.05;;;;;;;;;;5027106;28;20582;-50
2023/10/24 06:55:50;;;;;;;1.30;1.02;;;;;;;;;;5025906;28;20187;-50
2023/10/24 06:58:16;;;;;;;1.20;1.10;;;;;;;;;;5032762;28;20184;-50
2023/10/24 07:00:44;;;;;;;1.83;1.40;;;;;;;;;;5023029;28;20279;-50
2023/10/24 07:03:10;;;;;;;1.35;1.13;;;;;;;;;;5032580;28;20179;-51
2023/10/24 07:05:36;;;;;;;1.13;1.02;;;;;;;;;;5031891;28;20326;-50
2023/10/24 07:08:02;;;;;;;1.85;1.58;;;;;;;;;;5026554;28;20803;-50
2023/10/24 07:10:28;;;;;;;1.20;1.00;;;;;;;;;;5028933;28;20184;-50
2023/10/24 07:12:54;;;;;;;1.10;1.00;;;;;;;;;;5023534;28;20179;-50
2023/10/24 07:15:20;;;;;;;2.00;1.10;;;;;;;;;;5032468;28;20765;-50
2023/10/24 07:17:46;;;;;;;1.27;1.17;;;;;;;;;;5030495;28;20959;-50
2023/10/24 07:20:12;;;;;;;1.50;1.00;;;;;;;;;;5026258;28;20200;-50
2023/10/24 07:22:38;;;;;;;1.15;1.05;;;;;;;;;;5033481;28;20602;-50
2023/10/24 07:25:04;;;;;;;1.48;1.17;;;;;;;;;;5026643;28;20188;-50
2023/10/24 07:27:30;;;;;;;2.08;1.10;;;;;;;;;;5031256;28;21272;-50
2023/10/24 07:29:56;;;;;;;1.10;1.00;;;;;;;;;;5027161;28;20590;-50
2023/10/24 07:32:22;;;;;;;1.30;0.90;;;;;;;;;;5023897;28;20219;-50
2023/10/24 07:34:48;;;;;;;1.10;1.00;;;;;;;;;;5031682;28;20208;-50
2023/10/24 07:37:15;;;;;;;1.17;1.05;;;;;;;;;;5033822;28;20571;-50
2023/10/24 07:39:41;;;;;;;1.08;1.00;;;;;;;;;;5029989;28;20214;-50
2023/10/24 07:42:08;;;;;;;1.90;1.10;;;;;;;;;;5029390;28;20211;-50
2023/10/24 07:44:34;;;;;;;1.15;1.10;;;;;;;;;;5018955;28;20189;-50
2023/10/24 07:47:00;;;;;;;1.48;1.20;;;;;;;;;;5029205;28;20242;-50
2023/10/24 07:49:26;;;;;;;1.15;1.00;;;;;;;;;;5024873;28;20202;-50
2023/10/24 07:51:52;;;;;;;1.10;1.00;;;;;;;;;;5024077;28;20493;-50
2023/10/24 07:54:18;;;;;;;1.77;1.15;;;;;;;;;;5029774;28;20215;-50
2023/10/24 07:56:44;;;;;;;1.27;0.90;;;;;;;;;;5030080;28;20184;-50
2023/10/24 07:59:10;;;;;;;1.83;1.20;;;;;;;;;;5029247;28;20180;-50
2023/10/24 08:01:36;;;;;;;1.20;1.08;;;;;;;;;;5018037;28;20193;-50
2023/10/24 08:04:02;;;;;;;2.00;1.10;;;;;;;;;;5027482;28;20223;-50
2023/10/24 08:06:28;;;;;;;1.02;1.02;;;;;;;;;;5028963;28;20194;-50
2023/10/24 08:08:54;;;;;;;1.23;1.13;;;;;;;;;;5025447;28;20231;-50
2023/10/24 08:11:20;;;;;;;1.60;1.15;;;;;;;;;;5033892;28;20574;-50
2023/10/24 08:13:45;;;;;;;0.82;0.82;;;;;;;;;;5026179;28;20618;-51
2023/10/24 08:16:12;;;;;;;1.42;1.20;;;;;;;;;;5025726;28;20183;-50
2023/10/24 08:18:38;;;;;;;1.65;1.20;;;;;;;;;;5029770;28;20684;-50
2023/10/24 08:21:04;;;;;;;1.23;1.10;;;;;;;;;;5027560;28;20195;-51
2023/10/24 08:23:30;;;;;;;1.10;1.00;;;;;;;;;;5028274;28;20199;-50
2023/10/24 08:25:57;;;;;;;1.88;1.30;;;;;;;;;;5023852;28;20214;-50
2023/10/24 08:28:23;;;;;;;1.42;1.10;;;;;;;;;;5030592;28;20658;-50
2023/10/24 08:30:49;;;;;;;2.00;1.30;;;;;;;;;;5026333;28;20184;-50
2023/10/24 08:33:16;;;;;;;5.88;1.48;;;;;;;;;;5023765;28;20257;-50
2023/10/24 08:35:43;;;;;;;1.50;1.20;;;;;;;;;;5015754;28;20204;-51
2023/10/24 08:38:09;;;;;;;1.67;1.23;;;;;;;;;;5023716;28;20561;-51
2023/10/24 08:40:35;;;;;;;2.25;1.70;;;;;;;;;;5024650;28;20195;-50
2023/10/24 08:43:01;;;;;;;4.03;2.17;;;;;;;;;;5024553;28;20786;-51
2023/10/24 08:45:28;;;;;;;3.92;1.88;;;;;;;;;;5029259;28;20609;-49
2023/10/24 08:47:54;;;;;;;3.53;2.17;;;;;;;;;;5023521;28;20180;-50
2023/10/24 08:50:20;;;;;;;4.90;2.60;;;;;;;;;;5036111;28;20194;-50
2023/10/24 08:52:46;;;;;;;4.82;1.98;;;;;;;;;;5030984;28;20183;-50
2023/10/24 08:55:12;;;;;;;7.20;2.83;;;;;;;;;;5024829;28;20586;-50
2023/10/24 08:57:42;;;;;;;6.43;2.47;;;;;;;;;;5021411;28;20212;-50
2023/10/24 09:00:12;;;;;;;3.72;2.35;;;;;;;;;;5028486;28;20581;-50
2023/10/24 09:02:41;;;;;;;8.15;2.80;;;;;;;;;;5028270;28;20198;-50
2023/10/24 09:05:09;;;;;;;4.35;2.10;;;;;;;;;;5022853;28;20184;-50
2023/10/24 09:07:35;;;;;;;5.82;2.67;;;;;;;;;;5027516;28;20192;-50
2023/10/24 09:10:01;;;;;;;6.60;2.47;;;;;;;;;;5026024;28;20197;-50
2023/10/24 09:12:30;;;;;;;5.63;2.42;;;;;;;;;;5031330;28;20196;-50
2023/10/24 09:14:58;;;;;;;6.20;2.50;;;;;;;;;;5032656;28;20250;-50
2023/10/24 09:17:24;;;;;;;5.40;1.95;;;;;;;;;;5028038;28;20177;-48
2023/10/24 09:19:50;;;;;;;3.85;2.25;;;;;;;;;;5029041;28;20309;-49
2023/10/24 09:22:17;;;;;;;3.10;2.03;;;;;;;;;;5025169;28;20191;-49
2023/10/24 09:24:46;;;;;;;6.22;2.47;;;;;;;;;;5029782;28;20337;-49
2023/10/24 09:27:14;;;;;;;3.58;2.05;;;;;;;;;;5031584;28;20191;-50
2023/10/24 09:29:40;;;;;;;4.75;2.20;;;;;;;;;;5029816;28;20184;-49
2023/10/24 09:32:06;;;;;;;3.85;1.95;;;;;;;;;;5024682;28;20672;-49
2023/10/24 09:34:33;;;;;;;3.95;1.98;;;;;;;;;;5026441;28;20483;-49
2023/10/24 09:37:07;;;;;;;3.25;1.83;;;;;;;;;;5032687;28;20176;-49
2023/10/24 09:39:33;;;;;;;3.85;2.15;;;;;;;;;;5027529;28;20559;-49
2023/10/24 09:41:59;;;;;;;3.22;2.03;;;;;;;;;;5025220;28;20181;-49
2023/10/24 09:44:25;;;;;;;4.63;1.75;;;;;;;;;;5029956;28;20198;-49
2023/10/24 09:46:53;;;;;;;3.30;2.20;;;;;;;;;;5026541;28;20191;-49
2023/10/24 09:49:20;;;;;;;4.00;1.85;;;;;;;;;;5027666;28;20598;-50
2023/10/24 09:51:46;;;;;;;3.63;1.95;;;;;;;;;;5022717;28;20298;-49
2023/10/24 09:54:13;;;;;;;2.85;1.80;;;;;;;;;;5027809;28;20215;-49
2023/10/24 09:56:42;;;;;;;3.38;1.95;;;;;;;;;;5022379;28;20171;-49
2023/10/24 09:59:08;;;;;;;2.53;1.80;;;;;;;;;;5017052;28;20177;-50
2023/10/24 10:01:35;;;;;;;1.50;1.38;;;;;;;;;;5018199;28;20707;-49
2023/10/24 10:04:02;;;;;;;4.07;2.33;;;;;;;;;;5030835;28;20274;-49
2023/10/24 10:06:28;;;;;;;3.35;1.95;;;;;;;;;;5029960;28;20238;-49
2023/10/24 10:08:58;;;;;;;2.50;1.80;;;;;;;;;;5027031;28;20195;-49
2023/10/24 10:11:26;;;;;;;2.63;1.52;;;;;;;;;;5024261;28;20191;-49
2023/10/24 10:13:59;;;;;;;4.40;2.15;;;;;;;;;;5019679;28;20219;-49
2023/10/24 10:16:46;;;;;;;5.22;1.85;;;;;;;;;;5024086;28;20191;-49
2023/10/24 10:19:28;;;;;;;3.53;2.00;;;;;;;;;;5031923;28;20491;-49
2023/10/24 10:22:00;;;;;;;5.13;2.10;;;;;;;;;;5026898;28;20215;-49
2023/10/24 10:24:45;;;;;;;1.95;1.63;;;;;;;;;;5030847;28;20258;-49
2023/10/24 10:27:27;;;;;;;2.67;1.52;;;;;;;;;;5033228;28;20214;-49
2023/10/24 10:30:11;;;;;;;2.58;1.83;;;;;;;;;;5022936;28;20190;-49
2023/10/24 10:32:41;;;;;;;2.35;1.73;;;;;;;;;;5028257;28;20474;-49
2023/10/24 10:35:07;;;;;;;1.83;1.70;;;;;;;;;;5032831;28;20207;-49
2023/10/24 10:37:34;;;;;;;3.70;2.17;;;;;;;;;;5034142;28;20180;-49
2023/10/24 10:40:28;;;;;;;3.00;1.88;;;;;;;;;;5019199;28;20211;-49
2023/10/24 10:42:54;;;;;;;2.83;1.92;;;;;;;;;;5020421;28;20233;-49
2023/10/24 10:45:24;;;;;;;3.35;2.08;;;;;;;;;;5026797;28;20180;-49
2023/10/24 10:47:50;;;;;;;2.72;1.73;;;;;;;;;;5035460;28;20769;-49
2023/10/24 10:50:29;;;;;;;2.47;1.60;;;;;;;;;;5025774;28;20172;-49
2023/10/24 10:53:03;;;;;;;2.17;1.50;;;;;;;;;;5030382;28;20187;-49
2023/10/24 10:55:32;;;;;;;2.20;1.73;;;;;;;;;;5034354;28;20178;-49
2023/10/24 10:58:17;;;;;;;1.58;1.30;;;;;;;;;;5034818;28;20229;-49
2023/10/24 11:01:03;;;;;;;2.55;1.75;;;;;;;;;;5031182;28;20191;-49
2023/10/24 11:03:47;;;;;;;4.93;2.30;;;;;;;;;;5009586;28;20462;-49
2023/10/24 11:06:16;;;;;;;2.30;1.70;;;;;;;;;;5032121;28;20449;-49
2023/10/24 11:09:06;;;;;;;2.88;1.60;;;;;;;;;;5027383;28;20176;-50
2023/10/24 11:11:32;;;;;;;2.00;1.50;;;;;;;;;;5026863;28;20183;-49
2023/10/24 11:14:14;;;;;;;2.47;1.80;;;;;;;;;;5033113;28;20488;-49
2023/10/24 11:16:44;;;;;;;2.08;1.77;;;;;;;;;;5027708;28;20180;-50
2023/10/24 11:19:19;;;;;;;2.55;1.48;;;;;;;;;;5032546;28;20184;-50
2023/10/24 11:21:47;;;;;;;2.13;1.80;;;;;;;;;;5023240;28;20191;-50
2023/10/24 11:24:22;;;;;;;1.73;1.50;;;;;;;;;;5029164;28;20175;-51
2023/10/24 11:26:54;;;;;;;2.47;1.55;;;;;;;;;;5030019;28;20221;-49
2023/10/24 11:29:20;;;;;;;1.90;1.65;;;;;;;;;;5027785;28;20195;-49
2023/10/24 11:31:47;;;;;;;2.20;1.98;;;;;;;;;;5027471;28;20468;-49
2023/10/24 11:34:13;;;;;;;2.17;1.45;;;;;;;;;;5031195;28;20200;-49
2023/10/24 11:36:40;;;;;;;1.70;1.40;;;;;;;;;;5025340;28;20219;-49
2023/10/24 11:39:07;;;;;;;1.30;1.20;;;;;;;;;;5028601;28;20559;-50
2023/10/24 11:41:33;;;;;;;2.10;1.48;;;;;;;;;;5030999;28;20175;-50
2023/10/24 11:43:59;;;;;;;2.10;1.42;;;;;;;;;;5033119;28;20186;-50
2023/10/24 11:46:25;;;;;;;2.15;1.63;;;;;;;;;;5026066;28;20196;-49
2023/10/24 11:48:51;;;;;;;1.70;1.50;;;;;;;;;;5028270;28;20188;-50
2023/10/24 11:51:16;;;;;;;2.10;1.50;;;;;;;;;;5027151;28;20192;-49
2023/10/24 11:53:43;;;;;;;2.53;2.28;;;;;;;;;;5026177;28;20235;-49
2023/10/24 11:56:10;;;;;;;3.00;1.73;;;;;;;;;;5029432;28;20186;-49
2023/10/24 11:58:36;;;;;;;1.67;1.58;;;;;;;;;;5027384;28;20454;-49
2023/10/24 12:01:02;;;;;;;2.50;1.70;;;;;;;;;;5028856;28;20199;-49
2023/10/24 12:03:42;;;;;;;1.77;1.58;;;;;;;;;;5024296;28;20509;-50
2023/10/24 12:06:08;;;;;;;1.60;1.50;;;;;;;;;;5025788;28;20180;-50
2023/10/24 12:08:35;;;;;;;2.90;1.60;;;;;;;;;;5027385;28;20223;-49
2023/10/24 12:11:01;;;;;;;2.05;1.70;;;;;;;;;;5031561;28;20179;-49
2023/10/24 12:13:27;;;;;;;2.13;1.50;;;;;;;;;;5031295;28;20212;-50
2023/10/24 12:15:53;;;;;;;1.50;1.40;;;;;;;;;;5030553;28;20172;-50
2023/10/24 12:18:19;;;;;;;1.98;1.77;;;;;;;;;;5030914;28;20617;-50
2023/10/24 12:20:45;;;;;;;2.75;1.75;;;;;;;;;;5031208;28;20180;-49
2023/10/24 12:23:11;;;;;;;3.35;2.00;;;;;;;;;;5020084;28;20176;-50
2023/10/24 12:25:37;;;;;;;2.20;1.50;;;;;;;;;;5033361;28;20184;-49
2023/10/24 12:28:03;;;;;;;2.42;1.73;;;;;;;;;;5024622;28;20172;-49
2023/10/24 12:30:29;;;;;;;1.73;1.52;;;;;;;;;;5023028;28;20210;-50
2023/10/24 12:32:54;;;;;;;1.42;1.33;;;;;;;;;;5024049;28;20290;-49
2023/10/24 12:35:20;;;;;;;2.47;2.13;;;;;;;;;;5032805;28;20490;-50
2023/10/24 12:37:46;;;;;;;1.58;1.42;;;;;;;;;;5030741;28;20183;-50
2023/10/24 12:40:12;;;;;;;1.75;1.50;;;;;;;;;;5033688;28;20180;-49
2023/10/24 12:42:38;;;;;;;1.90;1.60;;;;;;;;;;5028040;28;20184;-49
2023/10/24 12:45:04;;;;;;;2.60;1.52;;;;;;;;;;5027336;28;20185;-49
2023/10/24 12:47:30;;;;;;;1.52;1.42;;;;;;;;;;5030029;28;20466;-49
2023/10/24 12:49:56;;;;;;;2.95;1.52;;;;;;;;;;5021200;28;20199;-49
2023/10/24 12:52:22;;;;;;;1.73;1.63;;;;;;;;;;5033264;28;20184;-49
2023/10/24 12:54:49;;;;;;;1.67;1.58;;;;;;;;;;5032726;28;20218;-50
2023/10/24 12:57:15;;;;;;;1.85;1.70;;;;;;;;;;5022854;28;20176;-49
2023/10/24 12:59:41;;;;;;;1.65;1.52;;;;;;;;;;5036747;28;20301;-49
2023/10/24 13:02:08;;;;;;;2.10;1.73;;;;;;;;;;5031946;28;20180;-45
2023/10/24 13:04:35;;;;;;;4.45;1.77;;;;;;;;;;5027210;28;20179;-44
2023/10/24 13:07:04;;;;;;;2.63;1.88;;;;;;;;;;5030484;28;20191;-46
2023/10/24 13:09:30;;;;;;;2.88;1.73;;;;;;;;;;5028799;28;20188;-45
2023/10/24 13:11:56;;;;;;;4.07;1.90;;;;;;;;;;5032778;28;20226;-46
2023/10/24 13:14:22;;;;;;;3.25;1.80;;;;;;;;;;5027693;28;20527;-45
2023/10/24 13:16:49;;;;;;;3.33;1.83;;;;;;;;;;5023517;28;20195;-45
2023/10/24 13:19:15;;;;;;;1.88;1.65;;;;;;;;;;5020854;28;20559;-45
2023/10/24 13:21:41;;;;;;;3.00;1.80;;;;;;;;;;5023718;28;20263;-45
2023/10/24 13:24:07;;;;;;;2.25;2.05;;;;;;;;;;5025570;28;20177;-45
2023/10/24 13:26:34;;;;;;;2.03;1.70;;;;;;;;;;5022892;28;20177;-45
2023/10/24 13:29:01;;;;;;;2.00;1.88;;;;;;;;;;5027124;28;20266;-45
2023/10/24 13:31:27;;;;;;;2.50;2.10;;;;;;;;;;5031253;28;20180;-45
2023/10/24 13:33:53;;;;;;;2.30;1.90;;;;;;;;;;5030953;28;20339;-45
2023/10/24 13:36:19;;;;;;;2.17;1.98;;;;;;;;;;5025291;28;20184;-45
2023/10/24 13:38:45;;;;;;;2.88;2.10;;;;;;;;;;5032466;28;20184;-45
2023/10/24 13:41:13;;;;;;;3.03;2.40;;;;;;;;;;5029745;28;20548;-45
2023/10/24 13:43:41;;;;;;;2.40;1.75;;;;;;;;;;5031332;28;20208;-45
2023/10/24 13:46:07;;;;;;;2.72;2.38;;;;;;;;;;5031166;28;20226;-46
2023/10/24 13:48:33;;;;;;;3.30;1.80;;;;;;;;;;5031505;28;20183;-46
2023/10/24 13:50:59;;;;;;;2.47;1.98;;;;;;;;;;5028880;28;20180;-45
2023/10/24 13:53:25;;;;;;;2.38;1.98;;;;;;;;;;5029935;28;20587;-47
2023/10/24 13:55:51;;;;;;;3.80;2.40;;;;;;;;;;5032917;28;20212;-45
2023/10/24 13:58:17;;;;;;;2.42;2.13;;;;;;;;;;5035965;28;20195;-46
2023/10/24 14:00:43;;;;;;;2.85;1.92;;;;;;;;;;5025480;28;20204;-45
2023/10/24 14:03:08;;;;;;;2.25;1.98;;;;;;;;;;5031232;28;20180;-45
2023/10/24 14:05:36;;;;;;;2.05;1.85;;;;;;;;;;5029651;28;20273;-46
2023/10/24 14:08:02;;;;;;;2.08;1.88;;;;;;;;;;5029644;28;20172;-45
2023/10/24 14:10:28;;;;;;;2.38;2.03;;;;;;;;;;5030320;28;20573;-45
2023/10/24 14:12:54;;;;;;;2.85;2.17;;;;;;;;;;5034332;28;20248;-46
2023/10/24 14:15:20;;;;;;;2.40;1.95;;;;;;;;;;5033099;28;20590;-45
2023/10/24 14:17:46;;;;;;;2.00;1.88;;;;;;;;;;5034210;28;20179;-45
2023/10/24 14:20:11;;;;;;;2.33;2.13;;;;;;;;;;5030815;28;20229;-45
2023/10/24 14:22:37;;;;;;;2.58;2.28;;;;;;;;;;5029930;28;20225;-46
2023/10/24 14:25:04;;;;;;;2.40;2.20;;;;;;;;;;5024806;28;20297;-46
2023/10/24 14:27:30;;;;;;;4.03;1.90;;;;;;;;;;5030915;28;20184;-46
2023/10/24 14:29:56;;;;;;;3.47;2.20;;;;;;;;;;5024475;28;20489;-45
2023/10/24 14:32:22;;;;;;;2.47;2.25;;;;;;;;;;5028461;28;20267;-46
2023/10/24 14:34:48;;;;;;;2.30;2.10;;;;;;;;;;5031993;28;20346;-46
2023/10/24 14:37:14;;;;;;;3.83;2.05;;;;;;;;;;5034116;28;20702;-46
2023/10/24 14:39:41;;;;;;;2.25;2.05;;;;;;;;;;5030296;28;20266;-45
2023/10/24 14:42:07;;;;;;;2.60;2.40;;;;;;;;;;5034103;28;20180;-45